createdAt,value
2023-05-04T00:01:28.660Z,4.22
2023-05-04T00:03:55.528Z,4.03
2023-05-04T00:06:22.227Z,4.85
2023-05-04T00:08:48.748Z,4.38
2023-05-04T00:11:15.257Z,3.97
2023-05-04T00:13:41.773Z,5.15
2023-05-04T00:16:10.633Z,4.40
2023-05-04T00:18:37.769Z,4.07
2023-05-04T00:21:04.291Z,5.25
2023-05-04T00:23:30.957Z,4.82
2023-05-04T00:26:01.092Z,4.65
2023-05-04T00:28:27.880Z,4.30
2023-05-04T00:30:54.680Z,5.10
2023-05-04T00:33:21.884Z,4.60
2023-05-04T00:35:48.603Z,4.43
2023-05-04T00:38:16.730Z,3.97
2023-05-04T00:40:43.444Z,4.60
2023-05-04T00:43:09.991Z,4.32
2023-05-04T00:45:36.567Z,4.30
2023-05-04T00:48:03.769Z,4.15
2023-05-04T00:50:30.804Z,3.85
2023-05-04T00:52:59.803Z,3.75
2023-05-04T00:55:26.811Z,3.95
2023-05-04T00:57:53.567Z,3.95
2023-05-04T01:00:20.519Z,3.60
2023-05-04T01:02:47.064Z,4.68
2023-05-04T01:05:14.049Z,4.07
2023-05-04T01:08:01.236Z,4.13
2023-05-04T01:10:37.405Z,3.55
2023-05-04T01:13:16.358Z,4.10
2023-05-04T01:15:43.303Z,3.80
2023-05-04T01:18:09.915Z,4.60
2023-05-04T01:20:37.214Z,3.85
2023-05-04T01:23:04.176Z,3.80
2023-05-04T01:25:44.399Z,3.45
2023-05-04T01:28:18.434Z,3.45
2023-05-04T01:30:49.862Z,3.92
2023-05-04T01:33:17.279Z,3.47
2023-05-04T01:35:44.651Z,4.40
2023-05-04T01:38:11.206Z,3.55
2023-05-04T01:40:37.724Z,3.55
2023-05-04T01:43:04.307Z,3.58
2023-05-04T01:45:30.835Z,3.47
2023-05-04T01:47:57.410Z,3.65
2023-05-04T01:50:23.978Z,4.13
2023-05-04T01:52:50.873Z,3.50
2023-05-04T01:55:17.445Z,3.20
2023-05-04T01:57:43.983Z,3.90
2023-05-04T02:00:11.199Z,4.05
2023-05-04T02:02:37.792Z,3.22
2023-05-04T02:05:04.832Z,3.17
2023-05-04T02:07:31.371Z,3.50
2023-05-04T02:09:57.898Z,3.97
2023-05-04T02:12:24.504Z,3.20
2023-05-04T02:14:51.060Z,3.90
2023-05-04T02:17:17.540Z,3.72
2023-05-04T02:19:44.042Z,3.90
2023-05-04T02:22:10.715Z,3.70
2023-05-04T02:24:37.360Z,4.20
2023-05-04T02:27:03.909Z,3.95
2023-05-04T02:29:30.505Z,3.83
2023-05-04T02:31:57.086Z,3.90
2023-05-04T02:34:23.676Z,3.88
2023-05-04T02:36:50.256Z,4.10
2023-05-04T02:39:17.388Z,4.30
2023-05-04T02:41:43.951Z,3.90
2023-05-04T02:44:10.638Z,4.15
2023-05-04T02:46:37.244Z,3.53
2023-05-04T02:49:03.931Z,4.13
2023-05-04T02:51:30.455Z,4.22
2023-05-04T02:53:57.017Z,5.05
2023-05-04T02:56:24.327Z,4.95
2023-05-04T02:58:50.926Z,4.10
2023-05-04T03:01:17.451Z,4.53
2023-05-04T03:03:44.097Z,4.25
2023-05-04T03:06:10.708Z,4.75
2023-05-04T03:08:37.276Z,5.90
2023-05-04T03:11:03.816Z,4.75
2023-05-04T03:13:30.357Z,4.53
2023-05-04T03:15:56.994Z,4.72
2023-05-04T03:18:23.525Z,4.72
2023-05-04T03:20:50.092Z,4.80
2023-05-04T03:23:16.649Z,4.55
2023-05-04T03:25:43.203Z,5.00
2023-05-04T03:28:09.751Z,5.35
2023-05-04T03:30:36.927Z,5.35
2023-05-04T03:33:04.227Z,4.72
2023-05-04T03:35:30.907Z,5.15
2023-05-04T03:37:57.577Z,4.57
2023-05-04T03:40:24.480Z,5.50
2023-05-04T03:42:54.360Z,4.55
2023-05-04T03:45:22.087Z,4.63
2023-05-04T03:47:48.894Z,4.65
2023-05-04T03:50:15.808Z,4.63
2023-05-04T03:52:42.544Z,5.38
2023-05-04T03:55:10.792Z,4.90
2023-05-04T03:57:37.464Z,5.45
2023-05-04T04:00:04.741Z,5.22
2023-05-04T04:02:31.734Z,5.13
2023-05-04T04:04:59.939Z,5.47
2023-05-04T04:07:27.193Z,5.63
2023-05-04T04:09:53.857Z,5.90
2023-05-04T04:12:20.883Z,5.53
2023-05-04T04:14:48.966Z,5.88
2023-05-04T04:17:15.877Z,5.93
2023-05-04T04:19:42.637Z,5.68
2023-05-04T04:22:09.252Z,5.70
2023-05-04T04:24:35.916Z,7.53
2023-05-04T04:27:06.401Z,5.30
2023-05-04T04:29:35.852Z,5.45
2023-05-04T04:32:04.567Z,5.47
2023-05-04T04:34:31.324Z,5.22
2023-05-04T04:36:59.729Z,6.50
2023-05-04T04:39:28.399Z,5.82
2023-05-04T04:41:56.353Z,6.38
2023-05-04T04:44:24.553Z,7.40
2023-05-04T04:46:55.245Z,6.18
2023-05-04T04:49:22.068Z,5.55
2023-05-04T04:51:56.585Z,6.95
2023-05-04T04:54:23.477Z,7.05
2023-05-04T04:56:50.205Z,7.20
2023-05-04T04:59:17.946Z,6.82
2023-05-04T05:01:44.860Z,6.15
2023-05-04T05:04:13.174Z,7.22
2023-05-04T05:06:39.847Z,7.20
2023-05-04T05:09:06.431Z,6.28
2023-05-04T05:11:33.002Z,6.55
2023-05-04T05:14:03.374Z,6.53
2023-05-04T05:16:51.540Z,5.72
2023-05-04T05:19:18.253Z,7.97
2023-05-04T05:21:44.885Z,7.15
2023-05-04T05:24:11.490Z,7.05
2023-05-04T05:26:38.180Z,6.63
2023-05-04T05:29:04.849Z,6.43
2023-05-04T05:31:33.101Z,7.97
2023-05-04T05:33:59.805Z,7.10
2023-05-04T05:36:27.310Z,5.82
2023-05-04T05:38:54.120Z,6.13
2023-05-04T05:41:21.011Z,6.40
2023-05-04T05:43:47.962Z,6.53
2023-05-04T05:46:14.750Z,6.00
2023-05-04T05:48:42.796Z,7.43
2023-05-04T05:51:09.500Z,5.60
2023-05-04T05:53:37.159Z,7.28
2023-05-04T05:56:05.182Z,7.07
2023-05-04T05:58:31.835Z,5.28
2023-05-04T06:01:01.317Z,6.65
2023-05-04T06:03:31.069Z,6.20
2023-05-04T06:05:58.299Z,6.32
2023-05-04T06:08:28.304Z,6.35
2023-05-04T06:10:57.306Z,5.88
2023-05-04T06:13:24.294Z,5.65
2023-05-04T06:15:52.771Z,6.53
2023-05-04T06:18:20.630Z,6.18
2023-05-04T06:20:47.659Z,5.75
2023-05-04T06:23:15.756Z,6.65
2023-05-04T06:25:42.469Z,5.80
2023-05-04T06:28:09.157Z,5.63
2023-05-04T06:30:36.595Z,5.88
2023-05-04T06:33:04.449Z,6.75
2023-05-04T06:35:31.550Z,6.32
2023-05-04T06:38:01.851Z,5.38
2023-05-04T06:40:28.605Z,6.05
2023-05-04T06:42:55.259Z,5.82
2023-05-04T06:45:21.966Z,6.22
2023-05-04T06:47:52.548Z,6.13
2023-05-04T06:50:19.480Z,5.40
2023-05-04T06:52:46.665Z,6.40
2023-05-04T06:55:13.973Z,5.50
2023-05-04T06:57:41.303Z,5.65
2023-05-04T07:00:10.033Z,5.68
2023-05-04T07:02:36.707Z,5.45
2023-05-04T07:05:04.072Z,5.10
2023-05-04T07:07:30.766Z,5.35
2023-05-04T07:10:00.317Z,5.47
2023-05-04T07:12:32.392Z,5.63
2023-05-04T07:15:01.005Z,5.60
2023-05-04T07:17:28.016Z,4.90
2023-05-04T07:19:54.891Z,5.25
2023-05-04T07:22:21.716Z,5.20
2023-05-04T07:24:48.324Z,4.88
2023-05-04T07:27:15.033Z,4.65
2023-05-04T07:29:41.776Z,4.43
2023-05-04T07:32:08.561Z,5.18
2023-05-04T07:34:45.061Z,5.82
2023-05-04T07:37:17.170Z,4.35
2023-05-04T07:39:43.991Z,4.53
2023-05-04T07:42:13.592Z,5.55
2023-05-04T07:44:48.121Z,5.05
2023-05-04T07:47:14.818Z,4.93
2023-05-04T07:49:41.467Z,5.60
2023-05-04T07:52:08.063Z,4.78
2023-05-04T07:54:37.608Z,5.93
2023-05-04T07:57:04.568Z,4.72
2023-05-04T07:59:32.036Z,5.40
2023-05-04T08:01:58.898Z,5.43
2023-05-04T08:04:25.737Z,5.35
2023-05-04T08:06:52.613Z,4.50
2023-05-04T08:09:20.070Z,4.40
2023-05-04T08:11:47.534Z,4.38
2023-05-04T08:14:15.001Z,5.65
2023-05-04T08:16:41.758Z,5.43
2023-05-04T08:19:08.535Z,5.78
2023-05-04T08:21:35.248Z,5.30
2023-05-04T08:24:04.778Z,5.18
2023-05-04T08:26:31.512Z,5.03
2023-05-04T08:29:10.599Z,4.07
2023-05-04T08:31:37.989Z,4.70
2023-05-04T08:34:04.814Z,4.57
2023-05-04T08:36:33.806Z,5.10
2023-05-04T08:39:00.948Z,4.95
2023-05-04T08:41:28.026Z,4.35
2023-05-04T08:43:54.900Z,4.55
2023-05-04T08:46:23.086Z,4.97
2023-05-04T08:48:53.208Z,4.40
2023-05-04T08:51:23.400Z,5.53
2023-05-04T08:53:51.805Z,4.57
2023-05-04T08:56:19.989Z,4.75
2023-05-04T08:58:50.069Z,4.32
2023-05-04T09:01:18.902Z,4.38
2023-05-04T09:03:47.637Z,5.10
2023-05-04T09:06:15.390Z,5.05
2023-05-04T09:08:42.842Z,5.15
2023-05-04T09:11:09.771Z,4.80
2023-05-04T09:13:37.190Z,4.88
2023-05-04T09:16:05.377Z,4.88
2023-05-04T09:18:44.554Z,5.15
2023-05-04T09:21:11.760Z,5.03
2023-05-04T09:23:51.696Z,3.92
2023-05-04T09:26:31.975Z,3.90
2023-05-04T09:29:12.135Z,4.30
2023-05-04T09:31:48.602Z,3.58
2023-05-04T09:34:19.637Z,4.05
2023-05-04T09:36:46.679Z,4.43
2023-05-04T09:39:15.161Z,4.18
2023-05-04T09:41:46.024Z,3.88
2023-05-04T09:44:22.977Z,4.55
2023-05-04T09:47:00.502Z,4.30
2023-05-04T09:49:40.119Z,4.53
2023-05-04T09:52:07.360Z,4.95
2023-05-04T09:54:36.322Z,4.28
2023-05-04T09:57:12.221Z,4.03
2023-05-04T09:59:39.981Z,4.15
2023-05-04T10:02:22.558Z,4.50
2023-05-04T10:04:57.437Z,4.90
2023-05-04T10:07:35.002Z,3.63
2023-05-04T10:10:11.579Z,4.00
2023-05-04T10:12:41.108Z,4.72
2023-05-04T10:15:15.406Z,4.18
2023-05-04T10:18:00.785Z,4.00
2023-05-04T10:21:17.505Z,4.13
2023-05-04T10:24:05.371Z,4.00
2023-05-04T10:26:59.912Z,4.28
2023-05-04T10:29:31.767Z,4.00
2023-05-04T10:32:06.968Z,4.20
2023-05-04T10:34:37.954Z,3.88
2023-05-04T10:37:28.988Z,3.38
2023-05-04T10:39:58.896Z,3.53
2023-05-04T10:42:27.925Z,3.15
2023-05-04T10:45:00.096Z,3.38
2023-05-04T10:47:40.851Z,3.28
2023-05-04T10:50:14.504Z,3.90
2023-05-04T10:52:54.097Z,3.00
2023-05-04T10:55:32.966Z,3.05
2023-05-04T10:58:03.401Z,2.58
2023-05-04T11:00:47.442Z,3.60
2023-05-04T11:03:31.364Z,3.28
2023-05-04T11:06:01.666Z,3.10
2023-05-04T11:08:32.453Z,3.10
2023-05-04T11:11:08.354Z,3.42
2023-05-04T11:13:50.209Z,3.05
2023-05-04T11:16:31.522Z,3.45
2023-05-04T11:19:24.752Z,3.13
2023-05-04T11:22:17.565Z,3.40
2023-05-04T11:24:48.945Z,3.55
2023-05-04T11:27:31.140Z,3.80
2023-05-04T11:33:14.804Z,3.40
2023-05-04T11:38:54.469Z,3.13
2023-05-04T11:41:32.798Z,3.13
2023-05-04T11:46:55.337Z,3.25
2023-05-04T11:55:12.764Z,2.80
2023-05-04T11:57:47.041Z,3.05
2023-05-04T12:00:17.433Z,3.70
2023-05-04T12:03:02.270Z,2.88
2023-05-04T12:05:32.936Z,2.60
2023-05-04T12:08:13.503Z,3.22
2023-05-04T12:11:04.254Z,3.15
2023-05-04T12:13:31.183Z,4.03
2023-05-04T12:16:22.596Z,3.85
2023-05-04T12:19:10.517Z,3.65
2023-05-04T12:25:54.676Z,2.65
2023-05-04T12:32:07.505Z,2.67
2023-05-04T12:34:48.345Z,3.50
2023-05-04T12:38:01.072Z,2.85
2023-05-04T12:40:27.775Z,3.65
2023-05-04T12:43:23.057Z,3.95
2023-05-04T12:46:29.962Z,3.10
2023-05-04T12:49:15.020Z,3.20
2023-05-04T13:18:45.904Z,4.07
2023-05-04T13:21:56.743Z,3.60
2023-05-04T13:24:39.427Z,3.67
2023-05-04T13:29:01.279Z,4.65
2023-05-04T13:31:03.123Z,3.47
2023-05-04T13:40:09.099Z,4.32
2023-05-04T13:42:41.901Z,4.45
2023-05-04T13:45:30.471Z,4.57
2023-05-04T13:48:03.996Z,4.10
2023-05-04T13:50:44.559Z,3.47
2023-05-04T13:53:13.927Z,4.13
2023-05-04T13:55:40.744Z,3.83
2023-05-04T13:58:42.275Z,3.65
2023-05-04T14:01:16.594Z,4.07
2023-05-04T14:03:48.805Z,4.10
2023-05-04T14:06:29.772Z,3.70
2023-05-04T14:09:04.320Z,3.67
2023-05-04T14:11:37.547Z,3.72
2023-05-04T14:17:17.968Z,3.95
2023-05-04T14:20:25.201Z,3.47
2023-05-04T14:23:11.547Z,3.67
2023-05-04T14:25:51.035Z,3.67
2023-05-04T14:28:58.788Z,2.88
2023-05-04T14:35:18.124Z,3.45
2023-05-04T14:38:12.242Z,3.55
2023-05-04T14:40:52.894Z,3.63
2023-05-04T14:44:08.755Z,3.22
2023-05-04T14:50:17.926Z,3.20
2023-05-04T14:53:15.670Z,3.45
2023-05-04T14:58:26.609Z,3.50
2023-05-04T15:01:50.764Z,4.30
2023-05-04T15:04:52.989Z,4.13
2023-05-04T15:10:29.019Z,3.47
2023-05-04T15:13:30.903Z,2.80
2023-05-04T15:16:14.789Z,3.33
2023-05-04T15:24:25.853Z,2.67
2023-05-04T15:27:39.866Z,2.97
2023-05-04T15:30:14.787Z,3.67
2023-05-04T15:39:31.275Z,3.95
2023-05-04T15:45:38.341Z,3.50
2023-05-04T15:48:12.498Z,3.35
2023-05-04T15:51:04.129Z,4.82
2023-05-04T15:53:37.723Z,4.47
2023-05-04T15:56:07.872Z,3.70
2023-05-04T15:59:19.538Z,4.40
2023-05-04T16:01:46.283Z,4.78
2023-05-04T16:04:13.598Z,3.70
2023-05-04T16:06:41.744Z,4.00
2023-05-04T16:09:39.085Z,4.63
2023-05-04T16:18:20.002Z,3.47
2023-05-04T16:20:47.862Z,4.20
2023-05-04T16:23:29.766Z,4.28
2023-05-04T16:26:06.581Z,4.70
2023-05-04T16:28:45.260Z,5.00
2023-05-04T16:31:12.243Z,5.47
2023-05-04T16:33:47.972Z,4.75
2023-05-04T16:36:47.426Z,5.10
2023-05-04T16:39:38.028Z,4.50
2023-05-04T16:45:53.094Z,5.07
2023-05-04T16:58:20.316Z,4.50
2023-05-04T17:04:50.652Z,4.72
2023-05-04T17:29:04.173Z,4.95
2023-05-04T17:46:31.581Z,4.03
2023-05-04T17:49:01.656Z,4.68
2023-05-04T17:51:58.693Z,4.75
2023-05-04T18:26:12.316Z,4.55
2023-05-04T18:39:28.733Z,6.03
2023-05-04T18:51:15.255Z,4.20
2023-05-04T18:54:17.797Z,4.50
2023-05-04T18:57:28.872Z,4.38
2023-05-04T19:00:38.849Z,4.32
2023-05-04T19:03:39.068Z,3.92
2023-05-04T19:06:41.828Z,4.10
2023-05-04T19:09:17.902Z,4.43
2023-05-04T19:41:25.647Z,4.28
2023-05-04T19:48:23.085Z,4.30
2023-05-04T19:50:55.468Z,5.45
2023-05-04T19:53:23.165Z,4.72
2023-05-04T19:55:55.807Z,4.40
2023-05-04T19:58:28.500Z,4.78
2023-05-04T20:01:01.229Z,4.50
2023-05-04T20:03:43.373Z,4.80
2023-05-04T20:06:25.781Z,4.80
2023-05-04T20:12:13.249Z,4.80
2023-05-04T20:18:49.995Z,4.55
2023-05-04T20:21:57.278Z,4.82
2023-05-04T20:31:16.792Z,4.90
2023-05-04T20:34:13.568Z,6.07
2023-05-04T20:42:50.847Z,5.68
2023-05-04T20:45:33.443Z,5.45
2023-05-04T20:51:19.861Z,5.50
2023-05-04T20:57:02.191Z,5.15
2023-05-04T20:59:55.555Z,5.93
2023-05-04T21:02:37.520Z,5.38
2023-05-04T21:05:36.334Z,5.35
2023-05-04T21:08:13.764Z,5.47
2023-05-04T21:10:48.815Z,4.68
2023-05-04T21:16:43.402Z,5.22
2023-05-04T21:19:21.922Z,4.75
2023-05-04T21:21:59.784Z,4.40
2023-05-04T21:24:32.293Z,4.47
2023-05-04T21:27:03.196Z,4.32
2023-05-04T21:32:21.416Z,3.97
2023-05-04T21:38:13.142Z,4.13
2023-05-04T21:40:59.545Z,3.92
2023-05-04T21:43:33.342Z,4.15
2023-05-04T21:45:59.985Z,3.42
2023-05-04T21:48:29.992Z,4.70
2023-05-04T21:50:58.616Z,3.75
2023-05-04T21:56:15.237Z,4.40
2023-05-04T21:58:42.162Z,4.18
2023-05-04T22:01:22.546Z,3.92
2023-05-04T22:03:58.296Z,3.35
2023-05-04T22:06:57.974Z,3.22
2023-05-04T22:09:44.111Z,3.67
2023-05-04T22:12:14.708Z,2.75
2023-05-04T22:15:14.576Z,3.38
2023-05-04T22:18:02.338Z,3.88
2023-05-04T22:29:16.366Z,3.22
2023-05-04T22:31:55.014Z,2.83
2023-05-04T22:34:30.813Z,2.83
2023-05-04T22:37:02.510Z,2.78
2023-05-04T22:45:27.800Z,2.78
2023-05-04T22:48:27.388Z,2.22
2023-05-04T22:51:10.126Z,2.88
2023-05-04T22:53:51.419Z,2.60
2023-05-04T22:56:44.606Z,2.80
2023-05-04T22:59:15.932Z,2.95
2023-05-04T23:01:54.107Z,2.60
2023-05-04T23:04:26.854Z,2.83
2023-05-04T23:07:07.184Z,2.58
2023-05-04T23:09:50.061Z,3.38
2023-05-04T23:12:27.156Z,2.92
2023-05-04T23:15:00.992Z,2.58
2023-05-04T23:17:37.671Z,3.05
2023-05-04T23:20:20.142Z,2.60
2023-05-04T23:23:08.485Z,2.30
2023-05-04T23:25:48.668Z,2.60
2023-05-04T23:28:23.336Z,2.70
2023-05-04T23:31:28.871Z,3.10
2023-05-04T23:34:32.292Z,3.00
2023-05-04T23:37:18.485Z,2.60
2023-05-04T23:40:32.305Z,2.50
2023-05-04T23:43:30.474Z,3.03
2023-05-04T23:49:35.637Z,3.00
2023-05-04T23:55:51.502Z,2.78
2023-05-04T23:58:48.805Z,2.47
